METAR Data
IDs: Format: Raw Decoded Include TAF

Data at: 0909 UTC 20 Sep 2018

RJNT 200900Z 00000KT 9999 -SHRA FEW010 SCT020 BKN025 18/17 Q1012
RJNT 200800Z 18003KT 140V210 9999 -SHRA FEW020 SCT050 BKN110 18/17 Q1012
RJNT 200700Z 20006KT 9999 -SHRA FEW020 SCT080 BKN100 19/18 Q1013
RJNT 200600Z 22003KT 9999 -SHRA FEW020 SCT050 BKN080 19/18 Q1012
RJNT 200500Z 23005KT 190V250 9999 -SHRA FEW030 BKN060 BKN100 22/16 Q1012
RJNT 200400Z VRB02KT 9999 -SHRA FEW035 BKN120 OVC/// 23/16 Q1012
RJNT 200300Z 34004KT 270V030 9999 FEW040 BKN120 23/14 Q1012
RJNT 200200Z 07003KT 020V140 9999 FEW040 BKN130 22/14 Q1013
RJNT 200100Z 36005KT 9999 FEW040 BKN130 OVC/// 22/14 Q1013
RJNT 200000Z VRB02KT 9999 FEW040 BKN130 OVC/// 21/16 Q1013
RJNT 192300Z VRB02KT 9999 FEW040 BKN130 OVC/// 19/15 Q1014
RJNT 192200Z VRB02KT 9999 FEW040 BKN140 OVC/// 18/15 Q1014
RJNT 192110Z VRB01KT 9999 FEW040 BKN150 OVC/// 18/14 Q1014 RMK 1CU040 5AC150 A2995
RJNT 191200Z 20004KT CAVOK 18/14 Q1015
RJNT 191100Z 20004KT CAVOK 18/15 Q1015
RJNT 191000Z 16004KT 060V210 CAVOK 20/15 Q1014